createdAt,value
2019-01-30T15:07:29.007Z,8.90
2019-01-30T15:09:55.323Z,11.53
2019-01-30T15:12:23.996Z,9.03
2019-01-30T15:14:52.786Z,23.97
2019-01-30T15:17:21.490Z,19.60
2019-01-30T15:19:50.164Z,35.13
2019-01-30T15:22:18.886Z,25.77
2019-01-30T15:24:47.592Z,23.03
2019-01-30T15:27:16.494Z,24.03
2019-01-30T15:29:45.228Z,25.63
2019-01-30T15:32:13.928Z,30.37
2019-01-30T15:34:42.623Z,38.53
2019-01-30T15:37:11.359Z,45.13
2019-01-30T15:39:40.055Z,28.33
2019-01-30T15:42:08.770Z,27.50
2019-01-30T15:44:37.814Z,22.10
2019-01-30T15:47:06.524Z,26.40
2019-01-30T15:49:35.218Z,22.33
2019-01-30T15:52:03.952Z,21.70
2019-01-30T15:54:32.662Z,18.80
2019-01-30T15:57:01.365Z,20.80
2019-01-30T15:59:30.102Z,21.57
2019-01-30T16:01:58.808Z,16.13
2019-01-30T16:04:27.515Z,28.93
2019-01-30T16:06:56.320Z,30.57
2019-01-30T16:09:25.035Z,15.47
2019-01-30T16:11:53.733Z,17.00
2019-01-30T16:14:22.475Z,14.47
2019-01-30T16:16:51.181Z,29.07
2019-01-30T16:19:19.885Z,45.80
2019-01-30T16:21:48.621Z,48.37
2019-01-30T16:24:17.336Z,42.10
2019-01-30T16:26:46.047Z,41.33
2019-01-30T16:29:14.878Z,32.53
2019-01-30T16:31:43.581Z,42.00
2019-01-30T16:34:12.273Z,42.63
2019-01-30T16:36:41.017Z,43.27
2019-01-30T16:39:09.822Z,35.03
2019-01-30T16:41:38.523Z,36.37
2019-01-30T16:44:07.887Z,27.07
2019-01-30T16:46:36.586Z,27.83
2019-01-30T16:49:05.488Z,18.73
2019-01-30T16:51:34.240Z,26.67
2019-01-30T16:54:02.929Z,16.97
2019-01-30T16:56:31.633Z,15.43
2019-01-30T16:59:00.391Z,14.10
2019-01-30T17:01:29.071Z,11.83
2019-01-30T17:03:57.853Z,11.47
2019-01-30T17:06:26.684Z,9.53
2019-01-30T17:08:55.381Z,12.73
2019-01-30T17:11:24.086Z,9.27
2019-01-30T17:13:52.811Z,10.80
2019-01-30T17:16:21.503Z,11.57
2019-01-30T17:18:52.330Z,9.93
2019-01-30T17:21:21.071Z,16.23
2019-01-30T17:23:49.789Z,19.23
2019-01-30T17:26:18.485Z,13.77
2019-01-30T17:28:47.363Z,14.80
2019-01-30T17:31:16.070Z,17.93
2019-01-30T17:33:44.776Z,15.47
2019-01-30T17:36:18.705Z,16.87
2019-01-30T17:38:43.943Z,17.33
2019-01-30T17:41:12.654Z,18.13
2019-01-30T17:43:41.394Z,12.20
2019-01-30T17:46:10.103Z,16.47
2019-01-30T17:48:38.816Z,46.33
2019-01-30T17:51:09.040Z,54.37
2019-01-30T17:53:37.844Z,47.30
2019-01-30T17:56:06.665Z,43.87
2019-01-30T17:58:36.985Z,29.63
2019-01-30T18:01:05.889Z,26.03
2019-01-30T18:03:34.597Z,20.30
2019-01-30T18:06:03.425Z,18.83
2019-01-30T18:08:32.412Z,23.13
2019-01-30T18:11:01.111Z,26.63
2019-01-30T18:13:29.853Z,39.37
2019-01-30T18:15:58.558Z,34.40
2019-01-30T18:18:27.361Z,33.10
2019-01-30T18:20:56.114Z,29.23
2019-01-30T18:23:24.804Z,29.43
2019-01-30T18:25:53.604Z,23.67
2019-01-30T18:28:22.336Z,19.13
2019-01-30T18:30:51.037Z,18.63
2019-01-30T18:33:19.736Z,20.13
2019-01-30T18:35:48.499Z,23.30
2019-01-30T18:38:17.499Z,20.97
2019-01-30T18:40:46.191Z,17.43
2019-01-30T18:43:14.937Z,20.10
2019-01-30T18:45:43.646Z,20.60
2019-01-30T18:48:12.442Z,18.37
2019-01-30T18:50:41.180Z,14.93
2019-01-30T18:53:09.881Z,19.87
2019-01-30T18:55:38.580Z,14.63
2019-01-30T18:58:07.306Z,12.67
2019-01-30T19:00:40.657Z,17.77
2019-01-30T19:03:11.149Z,18.20
2019-01-30T19:05:41.560Z,18.53
2019-01-30T19:08:10.266Z,24.40
2019-01-30T19:10:38.965Z,23.63
2019-01-30T19:13:07.687Z,22.90
2019-01-30T19:15:36.492Z,23.57
2019-01-30T19:18:05.793Z,15.73
2019-01-30T19:20:43.105Z,19.90
2019-01-30T19:23:11.794Z,24.80
2019-01-30T19:25:40.801Z,32.47
2019-01-30T19:28:09.939Z,22.03
2019-01-30T19:30:38.644Z,18.43
2019-01-30T19:33:09.032Z,16.80
2019-01-30T19:35:37.767Z,22.47
2019-01-30T19:38:10.279Z,20.40
2019-01-30T19:40:40.288Z,17.47
2019-01-30T19:43:09.012Z,18.90
2019-01-30T19:45:38.007Z,17.47
2019-01-30T19:48:07.504Z,9.93
2019-01-30T19:50:36.343Z,10.00
2019-01-30T19:53:08.123Z,12.50
2019-01-30T19:55:36.818Z,10.57
2019-01-30T19:58:06.132Z,9.10
2019-01-30T20:00:43.294Z,12.83
2019-01-30T20:03:14.538Z,20.27
2019-01-30T20:05:46.271Z,33.10
2019-01-30T20:08:15.076Z,28.00
2019-01-30T20:10:44.029Z,25.83
2019-01-30T20:13:12.735Z,23.80
2019-01-30T20:15:41.428Z,18.70
2019-01-30T20:18:10.161Z,16.20
2019-01-30T20:20:38.863Z,16.00
2019-01-30T20:23:07.872Z,21.83
2019-01-30T20:25:43.916Z,28.27
2019-01-30T20:28:12.476Z,10.47
2019-01-30T20:30:44.091Z,16.13
2019-01-30T20:33:13.019Z,12.43
2019-01-30T20:35:41.718Z,11.27
2019-01-30T20:38:10.599Z,11.00
2019-01-30T20:40:39.334Z,13.97
2019-01-30T20:43:08.030Z,11.30
2019-01-30T20:45:36.738Z,15.83
2019-01-30T20:48:05.972Z,12.20
2019-01-30T20:50:35.899Z,8.63
2019-01-30T20:53:06.004Z,16.43
2019-01-30T20:55:34.721Z,9.73
2019-01-30T20:58:03.407Z,9.77
2019-01-30T21:00:37.068Z,10.90
2019-01-30T21:03:06.892Z,10.13
2019-01-30T21:05:35.589Z,9.97
2019-01-30T21:08:04.585Z,11.00
2019-01-30T21:10:38.279Z,11.00
2019-01-30T21:13:07.373Z,17.40
2019-01-30T21:15:36.169Z,19.77
2019-01-30T21:18:05.410Z,22.37
2019-01-30T21:20:34.313Z,13.27
2019-01-30T21:23:03.032Z,20.37
2019-01-30T21:25:33.332Z,16.70
2019-01-30T21:28:02.136Z,13.27
2019-01-30T21:30:33.043Z,15.17
2019-01-30T21:33:01.897Z,20.90
2019-01-30T21:35:30.698Z,15.27
2019-01-30T21:37:59.590Z,12.70
2019-01-30T21:40:28.533Z,12.57
2019-01-30T21:42:57.540Z,12.30
2019-01-30T21:45:26.765Z,17.73
2019-01-30T21:47:55.484Z,10.73
2019-01-30T21:50:24.281Z,14.33
2019-01-30T21:52:52.975Z,17.33
2019-01-30T21:55:23.745Z,13.07
2019-01-30T21:57:52.537Z,12.63
2019-01-30T22:00:29.535Z,23.13
2019-01-30T22:02:58.340Z,19.50
2019-01-30T22:05:27.248Z,16.20
2019-01-30T22:08:01.063Z,14.63
2019-01-30T22:10:30.096Z,14.17
2019-01-30T22:12:58.721Z,15.57
2019-01-30T22:15:27.656Z,13.13
2019-01-30T22:17:56.319Z,13.03
2019-01-30T22:20:26.526Z,13.30
2019-01-30T22:22:55.455Z,13.53
2019-01-30T22:25:25.557Z,17.50
2019-01-30T22:27:54.519Z,12.87
2019-01-30T22:30:25.682Z,11.17
2019-01-30T22:32:54.573Z,14.63
2019-01-30T22:35:23.199Z,10.20
2019-01-30T22:37:51.861Z,10.17
2019-01-30T22:40:20.493Z,11.80
2019-01-30T22:42:49.113Z,10.73
2019-01-30T22:45:22.233Z,9.37
2019-01-30T22:47:51.107Z,12.20
2019-01-30T22:50:21.024Z,10.03
2019-01-30T22:52:49.689Z,9.43
2019-01-30T22:55:19.918Z,15.73
2019-01-30T22:57:50.785Z,13.23
2019-01-30T23:00:59.648Z,9.80
2019-01-30T23:03:33.900Z,10.30
2019-01-30T23:06:23.547Z,8.77
2019-01-30T23:08:55.076Z,10.50
2019-01-30T23:11:53.816Z,15.27
2019-01-30T23:14:24.271Z,7.23
2019-01-30T23:16:58.753Z,8.27
2019-01-30T23:19:33.070Z,9.83
2019-01-30T23:22:10.198Z,10.50
2019-01-30T23:24:53.362Z,9.00
2019-01-30T23:27:24.938Z,9.13
2019-01-30T23:30:11.355Z,11.10
2019-01-30T23:32:51.681Z,9.20
2019-01-30T23:35:26.164Z,9.63
2019-01-30T23:38:06.473Z,10.83
2019-01-30T23:40:38.003Z,14.97
2019-01-30T23:43:21.373Z,10.03
2019-01-30T23:45:58.457Z,11.17
2019-01-30T23:48:30.017Z,8.27
2019-01-30T23:51:10.376Z,15.30
2019-01-30T23:53:41.953Z,10.33
2019-01-30T23:56:13.484Z,10.73
2019-01-30T23:58:53.584Z,8.63
